メインページ
METAR-TAF:

METAR-TAF

空港 :

ダカール, セネガル

レオポール・セダール・サンゴール国際空港

緯度: 14-44N, 経度: 017-30W, 海抜: 27m

現時点の気象観測

当レポートは29分前の11:30(UTC)に作成
の風 13kt
気温 22°C
湿度 78%
気圧 1014 hPa
視程10km以上
1,500メートル以下は雲なし、積乱雲なし

METAR: GOOY 241130Z 01013KT CAVOK 22/18 Q1014 NOSIG

時間: 11:59 (11:59 UTC)

予報

当レポートは29分前の11:30(UTC)に作成
予報は24日の 12時(UTC)から 25日の 18時(UTC)まで有効
の風 14kt
視程10km以上
1,500メートル以下は雲なし、積乱雲なし

TAF: GOOY 241130Z 2412/2518 35014KT CAVOK

4,000以上の空港の気象観測と天気予報(METAR報とTAF報)

利用可能な観測所は地図上に黄色い丸と赤い丸で示す。

丸の上にカーソルを重ねると観測所名を参照できる。

次にクリックすると気象観測と天気予報を参照できる。

マップの切り替え:黒色「×」印の緑ボタンをクリックして拡大、「-」印の緑ボタンをクリックして縮小、緑色の三角印をクリックして隣りの地図に切り替え


METAR-TAF: